Flight Track Log - Related Links

Times and Time Zones

All times are in EDT time to prevent confusion due to time zone crossing. See the N137TK flight status page for this flight to view local times or setup timezone preferences in your user account.

Time Position Orientation Groundspeed Altitude Reporting Facility
EDT Latitude Longitude Course Direction KTS MPH feet Rate Location/Type
Sun 11:03:05 AM 26.1828 -81.6742 38° Northeast 165 190 5,800  Level Miami Center
Sun 11:04:05 AM 26.2228 -81.6664 10° North 173 199 7,900 2,050 Climbing Miami Center
Sun 11:05:05 AM 26.2769 -81.6711 356° North 169 194 9,900 1,550 Climbing Miami Center
Sun 11:06:05 AM 26.3292 -81.6661 North 181 208 11,000 1,050 Climbing Miami Center
Sun 11:07:00 AM 26.5554 -81.7280 42° Northeast  Level FlightAware Approximate
Sun 11:07:05 AM 26.3786 -81.6242 37° Northeast 189 217 12,000  Level Miami Center
Sun 11:08:05 AM 26.4322 -81.5753 39° Northeast 226 260 12,000 300 Level Miami Center
Sun 11:09:05 AM 26.4781 -81.5144 50° Northeast 231 266 12,600 500 Climbing Miami Center
Sun 11:10:05 AM 26.5217 -81.4581 49° Northeast 245 282 13,000 200 Climbing Miami Center
Sun 11:11:05 AM 26.5694 -81.4019 46° Northeast 251 289 13,000  Level Miami Center
Sun 11:12:05 AM 26.6314 -81.3556 34° Northeast 251 289 13,000  Level Miami Center
Sun 11:13:05 AM 26.6828 -81.3133 36° Northeast 256 295 13,000  Level Miami Center
Sun 11:14:05 AM 26.7428 -81.2644 36° Northeast 261 300 13,000  Level Miami Center
Sun 11:15:05 AM 26.8089 -81.2158 33° Northeast 261 300 13,000  Level Miami Center
Sun 11:16:05 AM 26.8747 -81.1786 27° Northeast 266 306 13,000 -500 Level Miami Center
Sun 11:17:05 AM 26.9364 -81.1414 28° Northeast 266 306 12,000 -950 Descending Miami Center
Sun 11:18:05 AM 27.0025 -81.0972 31° Northeast 271 312 11,100 -1,000 Descending Miami Center
Sun 11:19:05 AM 27.0789 -81.0533 27° Northeast 271 312 10,000 -550 Descending Miami Center
Sun 11:20:05 AM 27.1425 -81.0183 26° Northeast 271 312 10,000  Level Miami Center
Sun 11:21:05 AM 27.2083 -80.9808 27° Northeast 259 298 10,000  Level Miami Center
Sun 11:22:05 AM 27.2656 -80.9481 27° Northeast 254 292 10,000  Level Miami Center
Sun 11:23:05 AM 27.3314 -80.9106 27° Northeast 254 292 10,000 -450 Level Miami Center
Sun 11:24:05 AM 27.3992 -80.8733 26° Northeast 260 299 9,100 -950 Descending Miami Center
Sun 11:25:05 AM 27.4672 -80.8333 28° Northeast 266 306 8,100 -1,000 Descending Miami Center
Sun 11:26:05 AM 27.5392 -80.7914 27° Northeast 266 306 7,100 -650 Descending Miami Center
Sun 11:27:05 AM 27.6050 -80.7539 27° Northeast 266 306 6,800 -941 Descending Miami Center
Sun 11:29:10 AM 27.7500 -80.6500 32° Northeast 253 291 4,200 -908 Descending Orlando TRACON
Sun 11:30:10 AM 27.8167 -80.6333 12° North 252 290 4,000 -300 Descending Orlando TRACON
Sun 11:31:10 AM 27.8667 -80.6000 31° Northeast 221 254 3,600 -526 Descending Orlando TRACON
Sun 11:32:04 AM 27.9167 -80.5833 16° North 223 257 3,000 -316 Descending Orlando TRACON
Sun 11:33:04 AM 27.9833 -80.5833 360° North 205 236 3,000  Level Orlando TRACON
Sun 11:34:04 AM 28.0333 -80.6000 344° North 216 249 3,000  Level Orlando TRACON
Sun 11:35:04 AM 28.1000 -80.6167 348° North 230 265 3,000 -450 Level Orlando TRACON
Sun 11:36:04 AM 28.1667 -80.6333 348° North 234 269 2,100 -496 Descending Orlando TRACON
Sun 11:37:05 AM 28.2167 -80.6500 344° North 191 220 2,000 -298 Descending Orlando TRACON
Sun 11:38:05 AM 28.2667 -80.6667 344° North 203 234 1,500 -500 Descending Orlando TRACON

Login

Don't have an account? Register now (free) for customized features, flight alerts, and more!